Time;durP1;ratioP1;P1;durP2;ratioP2;P2;SDS_P1;SDS_P2;PMS_P1;PMS_P2;Temp;Humidity;BMP_temperature;BMP_pressure;BME280_temperature;BME280_humidity;BME280_pressure;Samples;Min_cycle;Max_cycle;Signal;HPM_P1;HPM_P2
2023/10/02 00:03:34;;;;;;;8.48;3.13;;;;;;;;;;5013703;28;20103;-80
2023/10/02 00:06:01;;;;;;;8.65;3.30;;;;;;;;;;5011981;28;20109;-78
2023/10/02 00:08:42;;;;;;;12.80;3.53;;;;;;;;;;5014571;28;20083;-81
2023/10/02 00:14:19;;;;;;;8.27;3.30;;;;;;;;;;5020979;28;20310;-79
2023/10/02 00:16:59;;;;;;;9.70;3.17;;;;;;;;;;5069267;28;20912;-80
2023/10/02 00:19:37;;;;;;;9.73;3.25;;;;;;;;;;5045676;28;20050;-77
2023/10/02 00:22:05;;;;;;;9.43;3.60;;;;;;;;;;5043213;28;20131;-81
2023/10/02 00:24:38;;;;;;;12.20;3.72;;;;;;;;;;5057754;28;20044;-80
2023/10/02 00:27:08;;;;;;;8.63;3.40;;;;;;;;;;5036580;28;20050;-80
2023/10/02 00:29:50;;;;;;;9.07;3.55;;;;;;;;;;5036827;28;21793;-83
2023/10/02 00:32:19;;;;;;;8.00;3.13;;;;;;;;;;5021776;28;20149;-82
2023/10/02 00:34:47;;;;;;;9.65;3.42;;;;;;;;;;5021060;28;20294;-83
2023/10/02 00:37:13;;;;;;;9.98;3.45;;;;;;;;;;5031114;28;20137;-83
2023/10/02 00:39:41;;;;;;;7.90;3.13;;;;;;;;;;5012146;28;20046;-81
2023/10/02 00:42:24;;;;;;;7.85;3.38;;;;;;;;;;5014098;28;20137;-80
2023/10/02 00:44:52;;;;;;;7.57;3.05;;;;;;;;;;5039083;28;20125;-81
2023/10/02 00:47:38;;;;;;;10.80;3.55;;;;;;;;;;5016855;28;20050;-80
2023/10/02 00:50:16;;;;;;;10.13;3.83;;;;;;;;;;5025033;28;20049;-78
2023/10/02 00:52:43;;;;;;;9.48;3.45;;;;;;;;;;5026660;28;20038;-80
2023/10/02 00:55:14;;;;;;;10.60;3.42;;;;;;;;;;5025612;28;20049;-80
2023/10/02 00:57:42;;;;;;;7.35;2.97;;;;;;;;;;5040477;28;20176;-80
2023/10/02 01:00:19;;;;;;;8.63;3.67;;;;;;;;;;5035071;28;20068;-80
2023/10/02 01:02:50;;;;;;;10.05;3.58;;;;;;;;;;5024392;28;20258;-79
2023/10/02 01:05:30;;;;;;;6.90;3.22;;;;;;;;;;5027125;28;20195;-79
2023/10/02 01:07:57;;;;;;;12.88;3.47;;;;;;;;;;5016192;28;20056;-80
2023/10/02 01:10:29;;;;;;;9.20;3.92;;;;;;;;;;5012281;28;20082;-77
2023/10/02 01:13:05;;;;;;;12.50;3.20;;;;;;;;;;5032148;28;20053;-78
2023/10/02 01:15:32;;;;;;;8.68;3.65;;;;;;;;;;5041787;28;20056;-83
2023/10/02 01:18:27;;;;;;;9.85;3.70;;;;;;;;;;5012066;28;20044;-81
2023/10/02 01:20:59;;;;;;;13.88;3.45;;;;;;;;;;5030550;28;20773;-83
2023/10/02 01:23:31;;;;;;;7.95;3.28;;;;;;;;;;5044751;28;20496;-82
2023/10/02 01:26:00;;;;;;;8.63;3.63;;;;;;;;;;5040688;28;20045;-80
2023/10/02 01:28:49;;;;;;;8.40;3.60;;;;;;;;;;5046528;28;20053;-83
2023/10/02 01:31:32;;;;;;;11.13;3.50;;;;;;;;;;5045352;28;20045;-80
2023/10/02 01:33:59;;;;;;;8.70;3.30;;;;;;;;;;5035739;28;20452;-80
2023/10/02 01:36:30;;;;;;;9.30;3.42;;;;;;;;;;5044228;28;20050;-77
2023/10/02 01:39:10;;;;;;;9.52;3.63;;;;;;;;;;5053099;28;20065;-79
2023/10/02 01:41:37;;;;;;;8.48;3.28;;;;;;;;;;5047144;28;20069;-81
2023/10/02 01:44:11;;;;;;;10.35;3.72;;;;;;;;;;5045150;28;20042;-80
2023/10/02 01:46:49;;;;;;;7.78;3.50;;;;;;;;;;5043660;28;20060;-80
2023/10/02 01:49:26;;;;;;;11.20;3.50;;;;;;;;;;5042175;28;20542;-80
2023/10/02 01:52:07;;;;;;;10.13;3.70;;;;;;;;;;5023252;28;21345;-82
2023/10/02 01:54:35;;;;;;;8.60;3.30;;;;;;;;;;5020235;28;21320;-81
2023/10/02 01:57:04;;;;;;;10.52;3.53;;;;;;;;;;5025727;28;20046;-80
2023/10/02 01:59:31;;;;;;;7.35;3.03;;;;;;;;;;5027435;28;20053;-79
2023/10/02 02:01:58;;;;;;;9.25;3.60;;;;;;;;;;5025001;28;20048;-82
2023/10/02 02:04:28;;;;;;;8.30;2.67;;;;;;;;;;5038727;28;20065;-76
2023/10/02 02:06:56;;;;;;;10.98;3.05;;;;;;;;;;5027619;28;20061;-80
2023/10/02 02:09:30;;;;;;;11.00;3.40;;;;;;;;;;5042019;28;20746;-81
2023/10/02 02:12:05;;;;;;;6.78;3.17;;;;;;;;;;5034766;28;20378;-83
2023/10/02 02:14:33;;;;;;;8.75;3.03;;;;;;;;;;5027487;28;20096;-80
2023/10/02 02:17:01;;;;;;;9.57;3.55;;;;;;;;;;5018570;28;20337;-80
2023/10/02 02:19:31;;;;;;;9.15;3.30;;;;;;;;;;5015593;28;20041;-79
2023/10/02 02:21:57;;;;;;;8.05;2.95;;;;;;;;;;5014455;28;20129;-81
2023/10/02 02:24:24;;;;;;;9.52;3.50;;;;;;;;;;5016620;28;20053;-81
2023/10/02 02:26:57;;;;;;;10.32;3.40;;;;;;;;;;5028126;28;20067;-80
2023/10/02 02:29:26;;;;;;;8.90;3.30;;;;;;;;;;5017280;28;20068;-82
2023/10/02 02:31:53;;;;;;;9.65;3.28;;;;;;;;;;5023109;28;20407;-81
2023/10/02 02:34:23;;;;;;;8.50;3.20;;;;;;;;;;5020400;28;20037;-79
2023/10/02 02:36:53;;;;;;;10.52;3.17;;;;;;;;;;5009394;28;20497;-82
2023/10/02 02:39:24;;;;;;;8.02;3.28;;;;;;;;;;5018739;28;20135;-82
2023/10/02 02:44:57;;;;;;;9.40;3.15;;;;;;;;;;5009564;28;21287;-78
2023/10/02 02:47:24;;;;;;;9.10;3.38;;;;;;;;;;5015297;28;20106;-81
2023/10/02 02:49:52;;;;;;;10.18;3.17;;;;;;;;;;5025624;28;20105;-82
2023/10/02 02:52:19;;;;;;;10.18;3.05;;;;;;;;;;5034171;28;20042;-81
2023/10/02 02:54:47;;;;;;;8.30;3.95;;;;;;;;;;5047700;28;20702;-81
2023/10/02 02:57:15;;;;;;;10.27;3.20;;;;;;;;;;5043115;28;20054;-79
2023/10/02 02:59:41;;;;;;;7.13;2.78;;;;;;;;;;5030132;28;20030;-80
2023/10/02 03:02:21;;;;;;;9.88;3.47;;;;;;;;;;5028923;28;20047;-79
2023/10/02 03:04:50;;;;;;;7.30;2.90;;;;;;;;;;5032620;28;20045;-77
2023/10/02 03:07:29;;;;;;;9.57;3.60;;;;;;;;;;5034224;28;20294;-78
2023/10/02 03:09:58;;;;;;;9.35;3.42;;;;;;;;;;5021119;28;20069;-79
2023/10/02 03:12:27;;;;;;;11.65;3.50;;;;;;;;;;5031269;28;20044;-78
2023/10/02 03:14:54;;;;;;;9.30;3.15;;;;;;;;;;5030519;28;20520;-79
2023/10/02 03:17:30;;;;;;;7.63;3.15;;;;;;;;;;5023470;28;20114;-81
2023/10/02 03:20:00;;;;;;;10.82;3.38;;;;;;;;;;5034398;28;20177;-77
2023/10/02 03:22:27;;;;;;;8.57;3.53;;;;;;;;;;5026557;28;20049;-77
2023/10/02 03:25:25;;;;;;;9.57;3.40;;;;;;;;;;5026798;28;20034;-77
2023/10/02 03:27:48;;;;;;;10.07;3.63;;;;;;;;;;5021166;28;20249;-78
2023/10/02 03:30:35;;;;;;;7.40;3.58;;;;;;;;;;5016266;28;20125;-81
2023/10/02 03:33:03;;;;;;;9.88;3.85;;;;;;;;;;5018181;28;21032;-79
2023/10/02 03:35:39;;;;;;;9.25;3.35;;;;;;;;;;5024917;28;20070;-79
2023/10/02 03:38:06;;;;;;;11.00;3.33;;;;;;;;;;5020879;28;20049;-80
2023/10/02 03:40:32;;;;;;;11.65;3.60;;;;;;;;;;5020837;28;20053;-78
2023/10/02 03:43:18;;;;;;;9.93;3.40;;;;;;;;;;5017310;28;20049;-83
2023/10/02 03:45:46;;;;;;;10.30;3.40;;;;;;;;;;5017069;28;20790;-79
2023/10/02 03:48:15;;;;;;;9.35;3.30;;;;;;;;;;5018155;28;20053;-82
2023/10/02 03:50:41;;;;;;;10.13;3.63;;;;;;;;;;5017196;28;20416;-82
2023/10/02 03:53:28;;;;;;;7.47;2.90;;;;;;;;;;5023220;28;20056;-83
2023/10/02 03:58:59;;;;;;;12.48;3.63;;;;;;;;;;5027736;28;20060;-80
2023/10/02 04:01:29;;;;;;;9.75;3.25;;;;;;;;;;5044352;28;20060;-78
2023/10/02 04:04:19;;;;;;;9.32;3.58;;;;;;;;;;5022081;28;20057;-81
2023/10/02 04:06:47;;;;;;;7.25;3.13;;;;;;;;;;5025899;28;20211;-79
2023/10/02 04:11:48;;;;;;;10.00;3.10;;;;;;;;;;5044927;28;20057;-81
2023/10/02 04:14:18;;;;;;;10.93;3.60;;;;;;;;;;5046738;28;20170;-78
2023/10/02 04:20:04;;;;;;;9.38;3.17;;;;;;;;;;5006863;28;20230;-79
2023/10/02 04:22:35;;;;;;;11.80;3.53;;;;;;;;;;5049479;28;20049;-79
2023/10/02 04:25:05;;;;;;;9.40;3.28;;;;;;;;;;5045219;28;20051;-81
2023/10/02 04:32:59;;;;;;;8.85;3.30;;;;;;;;;;5047269;28;20046;-80
2023/10/02 04:35:44;;;;;;;9.38;3.40;;;;;;;;;;5042732;28;20221;-81
2023/10/02 04:38:14;;;;;;;9.50;3.17;;;;;;;;;;5036111;28;20056;-83
2023/10/02 04:40:51;;;;;;;7.78;2.78;;;;;;;;;;5042000;28;20531;-83
2023/10/02 04:43:25;;;;;;;12.50;3.75;;;;;;;;;;5031936;28;21320;-81
2023/10/02 04:45:53;;;;;;;8.73;3.30;;;;;;;;;;5030722;28;20668;-80
2023/10/02 04:48:27;;;;;;;11.88;3.80;;;;;;;;;;5040030;28;20072;-81
2023/10/02 04:50:56;;;;;;;11.38;3.47;;;;;;;;;;5041305;28;20093;-79
2023/10/02 04:53:24;;;;;;;8.63;3.40;;;;;;;;;;5039125;28;20053;-79
2023/10/02 04:56:06;;;;;;;9.13;3.47;;;;;;;;;;5036088;28;20045;-77
2023/10/02 04:58:39;;;;;;;11.70;3.38;;;;;;;;;;5030224;28;20041;-78
2023/10/02 05:03:36;;;;;;;13.98;3.65;;;;;;;;;;5029110;28;20068;-79
2023/10/02 05:06:04;;;;;;;9.90;3.53;;;;;;;;;;5028715;28;20050;-78
2023/10/02 05:08:40;;;;;;;11.88;3.40;;;;;;;;;;5029448;28;20058;-81
2023/10/02 05:11:23;;;;;;;11.73;3.10;;;;;;;;;;5026988;28;20056;-77
2023/10/02 05:16:29;;;;;;;9.73;3.53;;;;;;;;;;5022310;28;20494;-81
2023/10/02 05:18:57;;;;;;;12.93;3.38;;;;;;;;;;5008674;28;20960;-82
2023/10/02 05:21:36;;;;;;;8.93;3.03;;;;;;;;;;5033495;28;20249;-79
2023/10/02 05:24:04;;;;;;;9.65;3.08;;;;;;;;;;5025088;28;20038;-81
2023/10/02 05:26:34;;;;;;;11.50;3.28;;;;;;;;;;5029855;28;20052;-80
2023/10/02 05:29:03;;;;;;;8.10;3.15;;;;;;;;;;5028327;28;20045;-80
2023/10/02 05:31:35;;;;;;;9.00;3.03;;;;;;;;;;5041385;28;20055;-80
2023/10/02 05:34:08;;;;;;;8.10;3.38;;;;;;;;;;5029820;28;20057;-79
2023/10/02 05:36:54;;;;;;;8.90;3.30;;;;;;;;;;5025038;28;20506;-81
2023/10/02 05:42:20;;;;;;;8.95;3.17;;;;;;;;;;5011017;28;20031;-81
2023/10/02 05:44:47;;;;;;;12.13;2.92;;;;;;;;;;5045893;28;20057;-81
2023/10/02 05:47:17;;;;;;;8.63;3.40;;;;;;;;;;5047458;28;20056;-80
2023/10/02 05:49:47;;;;;;;15.32;3.50;;;;;;;;;;5042586;28;20049;-79
2023/10/02 05:52:18;;;;;;;6.28;2.97;;;;;;;;;;5046418;28;20042;-81
2023/10/02 05:54:53;;;;;;;11.02;3.40;;;;;;;;;;5062678;28;20629;-78
2023/10/02 05:57:20;;;;;;;8.27;3.22;;;;;;;;;;5049210;28;20041;-79
2023/10/02 05:59:54;;;;;;;8.60;3.40;;;;;;;;;;5046161;28;20057;-80
2023/10/02 06:02:24;;;;;;;9.20;3.33;;;;;;;;;;5048497;28;20072;-78
2023/10/02 06:05:07;;;;;;;11.38;3.67;;;;;;;;;;5055344;28;20050;-82
2023/10/02 06:07:43;;;;;;;7.32;3.08;;;;;;;;;;5047436;28;20456;-81
2023/10/02 06:10:24;;;;;;;13.98;4.13;;;;;;;;;;5045958;28;20049;-81
2023/10/02 06:13:02;;;;;;;8.63;3.22;;;;;;;;;;5046468;28;20064;-83
2023/10/02 06:15:49;;;;;;;8.68;3.47;;;;;;;;;;5040529;28;20408;-77
2023/10/02 06:18:25;;;;;;;11.55;3.65;;;;;;;;;;5038732;28;20144;-81
2023/10/02 06:21:00;;;;;;;8.30;3.65;;;;;;;;;;5043188;28;20080;-82
2023/10/02 06:23:30;;;;;;;8.40;3.47;;;;;;;;;;5042549;28;20053;-82
2023/10/02 06:25:59;;;;;;;10.85;3.53;;;;;;;;;;5047741;28;20276;-81
2023/10/02 06:28:27;;;;;;;8.98;3.28;;;;;;;;;;5041474;28;20105;-82
2023/10/02 06:30:57;;;;;;;8.18;3.50;;;;;;;;;;5046917;28;20052;-81
2023/10/02 06:33:24;;;;;;;7.47;3.47;;;;;;;;;;5048361;28;20041;-81
2023/10/02 06:36:00;;;;;;;11.70;3.47;;;;;;;;;;5044273;28;20480;-81
2023/10/02 06:38:29;;;;;;;;;;;;;;;;;;5045228;28;20563;-81
2023/10/02 06:40:56;;;;;;;9.43;3.78;;;;;;;;;;5049081;28;20210;-80
2023/10/02 06:43:32;;;;;;;10.00;3.78;;;;;;;;;;5045306;28;20037;-82
2023/10/02 06:46:52;;;;;;;10.32;3.63;;;;;;;;;;5044539;28;20511;-80
2023/10/02 06:48:55;;;;;;;;;;;;;;;;;;5038680;28;21498;-82
2023/10/02 06:51:23;;;;;;;10.38;3.70;;;;;;;;;;5050145;28;20016;-80
2023/10/02 06:53:50;;;;;;;10.98;3.45;;;;;;;;;;5048460;28;20059;-80
2023/10/02 06:56:18;;;;;;;10.65;3.72;;;;;;;;;;5048054;28;20055;-79
2023/10/02 06:58:54;;;;;;;10.20;3.60;;;;;;;;;;5061782;28;20037;-79
2023/10/02 07:01:27;;;;;;;10.68;3.65;;;;;;;;;;5048937;28;20038;-80
2023/10/02 07:03:56;;;;;;;9.50;3.63;;;;;;;;;;5057419;28;20041;-79
2023/10/02 07:06:24;;;;;;;10.48;3.65;;;;;;;;;;5050221;28;20049;-80
2023/10/02 07:09:10;;;;;;;9.95;3.60;;;;;;;;;;5049546;28;20060;-79
2023/10/02 07:11:39;;;;;;;12.93;3.97;;;;;;;;;;5049101;28;20630;-78
2023/10/02 07:14:06;;;;;;;11.13;4.15;;;;;;;;;;5050004;28;20046;-78
2023/10/02 07:16:33;;;;;;;16.15;4.00;;;;;;;;;;5044376;28;20056;-78
2023/10/02 07:19:01;;;;;;;10.52;3.85;;;;;;;;;;5047081;28;21419;-80
2023/10/02 07:21:30;;;;;;;10.30;3.75;;;;;;;;;;5057602;28;20045;-80
2023/10/02 07:24:01;;;;;;;12.23;3.72;;;;;;;;;;5043892;28;20053;-78
2023/10/02 07:29:13;;;;;;;10.38;3.85;;;;;;;;;;5041736;28;20041;-80
2023/10/02 07:31:44;;;;;;;10.73;3.42;;;;;;;;;;5037051;28;20049;-82
2023/10/02 07:34:12;;;;;;;15.20;4.15;;;;;;;;;;5033146;28;20045;-78
2023/10/02 07:36:44;;;;;;;11.07;4.40;;;;;;;;;;5043247;28;20065;-78
2023/10/02 07:42:00;;;;;;;12.50;3.95;;;;;;;;;;5052523;28;20037;-78
2023/10/02 07:44:36;;;;;;;10.88;3.78;;;;;;;;;;5046671;28;20053;-81
2023/10/02 07:47:10;;;;;;;13.10;4.10;;;;;;;;;;5036936;28;20870;-82
2023/10/02 07:49:38;;;;;;;12.35;4.38;;;;;;;;;;5043913;28;20109;-79
2023/10/02 07:52:08;;;;;;;13.52;4.18;;;;;;;;;;5044155;28;20496;-81
2023/10/02 07:54:44;;;;;;;10.45;3.72;;;;;;;;;;5042303;28;20474;-80
2023/10/02 07:57:12;;;;;;;;;;;;;;;;;;5042597;28;20060;-80
2023/10/02 07:59:41;;;;;;;10.80;3.83;;;;;;;;;;5047982;28;19941;-81
2023/10/02 08:02:21;;;;;;;10.45;3.90;;;;;;;;;;5039632;28;20364;-82
2023/10/02 08:04:48;;;;;;;12.00;4.13;;;;;;;;;;5038359;28;20290;-80
2023/10/02 08:07:16;;;;;;;15.32;3.70;;;;;;;;;;5037990;28;20053;-82
2023/10/02 08:09:51;;;;;;;9.77;4.15;;;;;;;;;;5037082;28;20132;-82
2023/10/02 08:12:30;;;;;;;11.70;3.85;;;;;;;;;;5037503;28;20079;-81
2023/10/02 08:14:59;;;;;;;9.75;3.67;;;;;;;;;;5036546;28;20061;-80
2023/10/02 08:18:00;;;;;;;14.77;4.53;;;;;;;;;;5043042;28;20049;-80
2023/10/02 08:20:37;;;;;;;12.75;3.95;;;;;;;;;;5059604;28;20069;-78
2023/10/02 08:23:21;;;;;;;12.23;4.43;;;;;;;;;;5045058;28;20079;-80
2023/10/02 08:26:00;;;;;;;10.07;3.55;;;;;;;;;;5045814;28;20383;-80
2023/10/02 08:28:48;;;;;;;11.77;4.05;;;;;;;;;;5010988;28;20041;-81
2023/10/02 08:31:14;;;;;;;11.98;4.00;;;;;;;;;;5029427;28;20069;-77
2023/10/02 08:33:43;;;;;;;13.80;4.47;;;;;;;;;;5031039;28;20061;-79
2023/10/02 08:36:28;;;;;;;;;;;;;;;;;;5027768;28;20273;-81
2023/10/02 08:38:55;;;;;;;11.35;3.95;;;;;;;;;;5026492;28;20030;-79
2023/10/02 08:41:44;;;;;;;12.35;4.22;;;;;;;;;;5031581;28;20046;-81
2023/10/02 08:44:12;;;;;;;14.27;4.60;;;;;;;;;;5026550;28;20148;-79
2023/10/02 08:46:48;;;;;;;12.68;4.00;;;;;;;;;;5034321;28;20030;-80
2023/10/02 08:49:16;;;;;;;10.02;3.95;;;;;;;;;;5029969;28;20118;-80
2023/10/02 08:51:48;;;;;;;12.57;4.13;;;;;;;;;;5026805;28;20042;-78
2023/10/02 08:54:17;;;;;;;9.10;3.53;;;;;;;;;;5045252;28;20046;-78
2023/10/02 08:56:47;;;;;;;9.00;3.72;;;;;;;;;;5049235;28;20037;-80
2023/10/02 08:59:18;;;;;;;11.50;4.13;;;;;;;;;;5025974;28;20046;-80
2023/10/02 09:01:47;;;;;;;9.57;3.58;;;;;;;;;;5022969;28;20348;-82
2023/10/02 09:07:14;;;;;;;9.98;3.78;;;;;;;;;;5037186;28;20123;-81
2023/10/02 09:09:54;;;;;;;14.90;4.15;;;;;;;;;;5045022;28;20042;-81
2023/10/02 09:12:22;;;;;;;9.90;3.65;;;;;;;;;;5045502;28;20163;-81
2023/10/02 09:14:51;;;;;;;12.00;3.88;;;;;;;;;;5042062;28;20068;-83
2023/10/02 09:17:25;;;;;;;11.70;3.67;;;;;;;;;;5043488;28;20049;-82
2023/10/02 09:19:53;;;;;;;9.70;3.45;;;;;;;;;;5048615;28;20057;-81
2023/10/02 09:22:21;;;;;;;8.75;3.63;;;;;;;;;;5044417;28;20049;-82
2023/10/02 09:25:26;;;;;;;12.07;3.88;;;;;;;;;;5046032;28;20045;-78
2023/10/02 09:27:56;;;;;;;11.15;4.15;;;;;;;;;;5028222;28;20060;-79
2023/10/02 09:30:49;;;;;;;9.75;3.92;;;;;;;;;;5028550;28;20046;-79
2023/10/02 09:33:33;;;;;;;12.23;4.43;;;;;;;;;;5022731;28;20053;-79
2023/10/02 09:36:35;;;;;;;8.45;3.55;;;;;;;;;;5042816;28;20059;-79
2023/10/02 09:39:38;;;;;;;9.52;3.70;;;;;;;;;;5022750;28;20251;-79
2023/10/02 09:42:06;;;;;;;10.60;4.28;;;;;;;;;;5020337;28;20074;-81
2023/10/02 09:44:51;;;;;;;9.68;3.65;;;;;;;;;;5026694;28;20092;-79
2023/10/02 09:47:24;;;;;;;9.15;3.90;;;;;;;;;;5029286;28;20681;-79
2023/10/02 09:50:11;;;;;;;8.63;3.47;;;;;;;;;;5037607;28;20200;-79
2023/10/02 09:52:58;;;;;;;10.15;4.30;;;;;;;;;;5025566;28;20069;-80
2023/10/02 09:55:34;;;;;;;10.82;3.65;;;;;;;;;;5033751;28;20551;-79
2023/10/02 09:58:03;;;;;;;8.38;3.55;;;;;;;;;;5047309;28;20042;-81
2023/10/02 10:00:40;;;;;;;8.13;3.58;;;;;;;;;;5045493;28;20069;-80
2023/10/02 10:03:22;;;;;;;10.15;3.88;;;;;;;;;;5021864;28;20057;-82
2023/10/02 10:06:08;;;;;;;10.25;4.05;;;;;;;;;;5025215;28;20713;-79
2023/10/02 10:09:20;;;;;;;12.00;4.07;;;;;;;;;;5022800;28;20046;-78
2023/10/02 10:11:40;;;;;;;12.90;4.45;;;;;;;;;;5017926;28;20045;-79
2023/10/02 10:14:35;;;;;;;11.65;5.00;;;;;;;;;;5000690;28;20110;-80
2023/10/02 10:17:49;;;;;;;12.10;4.60;;;;;;;;;;5039112;28;20920;-82
2023/10/02 10:20:22;;;;;;;12.50;4.35;;;;;;;;;;5034099;28;20057;-82
2023/10/02 10:22:55;;;;;;;10.48;4.32;;;;;;;;;;5039553;28;20071;-81
2023/10/02 10:27:55;;;;;;;13.15;4.70;;;;;;;;;;5021661;28;20095;-82
2023/10/02 10:30:24;;;;;;;13.00;4.75;;;;;;;;;;5023875;28;20105;-80
2023/10/02 10:33:01;;;;;;;13.95;4.75;;;;;;;;;;5033470;28;20142;-79
2023/10/02 10:35:34;;;;;;;13.75;4.68;;;;;;;;;;5019971;28;20056;-82
2023/10/02 10:38:07;;;;;;;11.18;4.43;;;;;;;;;;5015409;28;20038;-80
2023/10/02 10:41:00;;;;;;;15.90;5.13;;;;;;;;;;5021443;28;20065;-80
2023/10/02 10:46:16;;;;;;;12.98;4.90;;;;;;;;;;5019402;28;20046;-78
2023/10/02 10:48:48;;;;;;;12.85;4.38;;;;;;;;;;5022919;28;20033;-82
2023/10/02 10:51:21;;;;;;;11.25;4.13;;;;;;;;;;5023009;28;20054;-80
2023/10/02 10:53:52;;;;;;;11.77;4.55;;;;;;;;;;5016925;28;20053;-79
2023/10/02 10:56:22;;;;;;;11.65;4.88;;;;;;;;;;5018206;28;20096;-79
2023/10/02 10:58:54;;;;;;;9.77;4.13;;;;;;;;;;5019801;28;20053;-80
2023/10/02 11:01:21;;;;;;;10.50;4.55;;;;;;;;;;5019115;28;20041;-81
2023/10/02 11:03:58;;;;;;;9.82;4.50;;;;;;;;;;5024251;28;20034;-79
2023/10/02 11:06:25;;;;;;;12.13;4.53;;;;;;;;;;5023742;28;20185;-79
2023/10/02 11:09:16;;;;;;;10.13;3.80;;;;;;;;;;5024070;28;20072;-79
2023/10/02 11:11:53;;;;;;;9.38;3.50;;;;;;;;;;5022920;28;20551;-78
2023/10/02 11:14:36;;;;;;;11.15;3.63;;;;;;;;;;5024126;28;20057;-79
2023/10/02 11:17:04;;;;;;;9.32;3.65;;;;;;;;;;5017421;28;20057;-79
2023/10/02 11:22:03;;;;;;;8.60;3.25;;;;;;;;;;5025467;28;20180;-80
2023/10/02 11:24:30;;;;;;;8.27;3.65;;;;;;;;;;5025935;28;20045;-79
2023/10/02 11:27:12;;;;;;;11.48;3.63;;;;;;;;;;5024271;28;20326;-83
2023/10/02 11:29:41;;;;;;;8.93;3.65;;;;;;;;;;5014439;28;20140;-78
2023/10/02 11:32:22;;;;;;;10.15;4.00;;;;;;;;;;5018916;28;20208;-81
2023/10/02 11:34:50;;;;;;;12.02;3.95;;;;;;;;;;5027576;28;20057;-81
2023/10/02 11:37:18;;;;;;;7.85;3.45;;;;;;;;;;5022619;28;20049;-79
2023/10/02 11:39:45;;;;;;;10.63;3.80;;;;;;;;;;5042859;28;20128;-82
2023/10/02 11:42:11;;;;;;;9.35;3.33;;;;;;;;;;5041669;28;20033;-80
2023/10/02 11:44:39;;;;;;;9.75;3.88;;;;;;;;;;5046412;28;20132;-81
2023/10/02 11:47:10;;;;;;;11.18;3.85;;;;;;;;;;5040158;28;20033;-80
2023/10/02 11:49:37;;;;;;;9.02;3.45;;;;;;;;;;5038135;28;20048;-81
2023/10/02 11:52:04;;;;;;;8.82;3.65;;;;;;;;;;5036937;28;20353;-80
2023/10/02 11:54:39;;;;;;;10.48;3.92;;;;;;;;;;5037720;28;20664;-79
2023/10/02 11:57:10;;;;;;;9.33;3.73;;;;;;;;;;5044164;28;20046;-81
2023/10/02 11:59:42;;;;;;;8.05;3.47;;;;;;;;;;5037663;28;20045;-81
2023/10/02 12:02:13;;;;;;;10.45;3.47;;;;;;;;;;5041435;28;20055;-80
2023/10/02 12:04:40;;;;;;;10.32;3.95;;;;;;;;;;5029222;28;20042;-81
2023/10/02 12:07:07;;;;;;;9.77;4.15;;;;;;;;;;5021990;28;20500;-79
2023/10/02 12:09:33;;;;;;;12.00;3.78;;;;;;;;;;5024623;28;20060;-78
2023/10/02 12:12:01;;;;;;;11.38;4.32;;;;;;;;;;5024537;28;20048;-79
2023/10/02 12:14:28;;;;;;;9.77;4.00;;;;;;;;;;5018545;28;20057;-79
2023/10/02 12:16:57;;;;;;;11.23;4.13;;;;;;;;;;5028541;28;20125;-81
2023/10/02 12:19:24;;;;;;;9.60;4.22;;;;;;;;;;5031706;28;20045;-80
2023/10/02 12:21:51;;;;;;;11.20;4.05;;;;;;;;;;5025873;28;20046;-81
2023/10/02 12:24:37;;;;;;;10.95;4.07;;;;;;;;;;5023613;28;20207;-83
2023/10/02 12:27:05;;;;;;;9.65;4.20;;;;;;;;;;5017735;28;20110;-80
2023/10/02 12:29:31;;;;;;;9.18;3.53;;;;;;;;;;5031448;28;20041;-80
2023/10/02 12:32:00;;;;;;;9.55;3.67;;;;;;;;;;5020775;28;20110;-83
2023/10/02 12:34:27;;;;;;;9.80;4.10;;;;;;;;;;5022324;28;20050;-79
2023/10/02 12:36:54;;;;;;;10.05;4.18;;;;;;;;;;5023096;28;20070;-81
2023/10/02 12:39:22;;;;;;;12.05;4.78;;;;;;;;;;5022038;28;20050;-80
2023/10/02 12:41:49;;;;;;;10.65;4.45;;;;;;;;;;5022215;28;20098;-80
2023/10/02 12:44:16;;;;;;;10.73;4.30;;;;;;;;;;5055464;28;20042;-81
2023/10/02 12:46:43;;;;;;;9.02;4.18;;;;;;;;;;5018421;28;20113;-82
2023/10/02 12:49:13;;;;;;;9.60;4.00;;;;;;;;;;5020387;28;20062;-81
2023/10/02 12:51:41;;;;;;;9.38;4.70;;;;;;;;;;5016828;28;20050;-81
2023/10/02 12:54:09;;;;;;;8.80;4.10;;;;;;;;;;5015972;28;20110;-81
2023/10/02 12:56:38;;;;;;;9.90;4.70;;;;;;;;;;5019049;28;20782;-80
2023/10/02 12:59:10;;;;;;;9.43;4.40;;;;;;;;;;5020719;28;20072;-81
2023/10/02 13:01:37;;;;;;;8.32;4.25;;;;;;;;;;5021697;28;20069;-79
2023/10/02 13:04:04;;;;;;;9.45;4.50;;;;;;;;;;5023151;28;20065;-80
2023/10/02 13:06:30;;;;;;;9.23;4.43;;;;;;;;;;5025269;28;20097;-79
2023/10/02 13:09:15;;;;;;;9.73;4.35;;;;;;;;;;5024609;28;20084;-79
2023/10/02 13:11:44;;;;;;;9.73;4.05;;;;;;;;;;5022394;28;20692;-81
2023/10/02 13:14:18;;;;;;;9.45;3.90;;;;;;;;;;5026329;28;20052;-82
2023/10/02 13:16:48;;;;;;;11.52;4.38;;;;;;;;;;5048668;28;21160;-80
2023/10/02 13:19:16;;;;;;;10.57;4.65;;;;;;;;;;5045434;28;20038;-80
2023/10/02 13:21:44;;;;;;;9.85;4.28;;;;;;;;;;5028753;28;20056;-80
2023/10/02 13:24:14;;;;;;;10.73;4.47;;;;;;;;;;5021253;28;20479;-80
2023/10/02 13:26:43;;;;;;;10.23;4.68;;;;;;;;;;5023205;28;20129;-80
2023/10/02 13:29:10;;;;;;;9.88;4.53;;;;;;;;;;5021438;28;20883;-80
2023/10/02 13:31:37;;;;;;;11.48;4.57;;;;;;;;;;5025121;28;20041;-81
2023/10/02 13:34:06;;;;;;;10.20;4.57;;;;;;;;;;5035128;28;20057;-81
2023/10/02 13:36:33;;;;;;;10.30;4.10;;;;;;;;;;5023342;28;20057;-82
2023/10/02 13:39:04;;;;;;;10.85;4.55;;;;;;;;;;5041598;28;20049;-80
2023/10/02 13:41:34;;;;;;;9.75;4.82;;;;;;;;;;5051986;28;20081;-81
2023/10/02 13:44:03;;;;;;;11.55;4.88;;;;;;;;;;5018747;28;20172;-79
2023/10/02 13:46:34;;;;;;;9.27;4.65;;;;;;;;;;5019330;28;20046;-80
2023/10/02 13:49:04;;;;;;;11.75;4.95;;;;;;;;;;5018886;28;20050;-81
2023/10/02 13:51:31;;;;;;;10.95;4.25;;;;;;;;;;5017676;28;20136;-80
2023/10/02 13:53:58;;;;;;;12.57;4.75;;;;;;;;;;5017320;28;20057;-81
2023/10/02 13:56:25;;;;;;;10.75;4.78;;;;;;;;;;5026602;28;20050;-79
2023/10/02 13:58:53;;;;;;;11.65;5.10;;;;;;;;;;5029706;28;20125;-80
2023/10/02 14:01:21;;;;;;;10.85;4.75;;;;;;;;;;5028232;28;20045;-80
2023/10/02 14:03:49;;;;;;;12.50;5.47;;;;;;;;;;5028243;28;20134;-80
2023/10/02 14:06:18;;;;;;;10.15;4.43;;;;;;;;;;5033971;28;20061;-80
2023/10/02 14:08:44;;;;;;;10.32;5.10;;;;;;;;;;5028908;28;20872;-81
2023/10/02 14:11:18;;;;;;;20.52;6.68;;;;;;;;;;5014950;28;20069;-80
2023/10/02 14:13:48;;;;;;;9.98;4.20;;;;;;;;;;5014766;28;20996;-81
2023/10/02 14:16:15;;;;;;;11.25;4.57;;;;;;;;;;5015296;28;20282;-81
2023/10/02 14:18:43;;;;;;;11.40;4.82;;;;;;;;;;5015652;28;20050;-80
2023/10/02 14:21:10;;;;;;;10.15;3.92;;;;;;;;;;5038256;28;20056;-80
2023/10/02 14:23:37;;;;;;;12.55;4.72;;;;;;;;;;5038955;28;20046;-79
2023/10/02 14:26:08;;;;;;;11.55;4.72;;;;;;;;;;5055281;28;20046;-79
2023/10/02 14:28:35;;;;;;;14.52;5.43;;;;;;;;;;5049405;28;20045;-78
2023/10/02 14:31:02;;;;;;;13.90;4.88;;;;;;;;;;5045848;28;20029;-79
2023/10/02 14:33:29;;;;;;;11.45;4.72;;;;;;;;;;5050141;28;20045;-80
2023/10/02 14:35:57;;;;;;;11.07;4.43;;;;;;;;;;5052110;28;20033;-79
2023/10/02 14:38:24;;;;;;;18.58;4.50;;;;;;;;;;5044854;28;20072;-79
2023/10/02 14:40:52;;;;;;;12.55;4.75;;;;;;;;;;5032414;28;20093;-81
2023/10/02 14:43:20;;;;;;;12.18;4.55;;;;;;;;;;5018147;28;20069;-82
2023/10/02 14:45:47;;;;;;;15.02;5.00;;;;;;;;;;5014688;28;20518;-81
2023/10/02 14:48:20;;;;;;;10.27;4.03;;;;;;;;;;5026374;28;20068;-78
2023/10/02 14:51:09;;;;;;;11.57;4.82;;;;;;;;;;5022231;28;20188;-78
2023/10/02 14:53:36;;;;;;;12.15;4.85;;;;;;;;;;5028310;28;20545;-78
2023/10/02 14:56:04;;;;;;;14.23;4.85;;;;;;;;;;5027534;28;20046;-80
2023/10/02 14:58:33;;;;;;;12.35;3.90;;;;;;;;;;5027795;28;20056;-81
2023/10/02 15:01:11;;;;;;;12.65;4.90;;;;;;;;;;5024133;28;20045;-78
2023/10/02 15:03:40;;;;;;;10.48;4.20;;;;;;;;;;5024680;28;20053;-78
2023/10/02 15:06:10;;;;;;;10.02;4.00;;;;;;;;;;5021557;28;20066;-79
2023/10/02 15:08:38;;;;;;;12.40;4.85;;;;;;;;;;5016439;28;20054;-79
2023/10/02 15:11:05;;;;;;;14.18;4.85;;;;;;;;;;5021215;28;20046;-77
2023/10/02 15:13:33;;;;;;;11.98;4.60;;;;;;;;;;5042216;28;20046;-78
2023/10/02 15:16:00;;;;;;;13.13;4.45;;;;;;;;;;5021074;28;20045;-77
2023/10/02 15:18:27;;;;;;;11.43;4.60;;;;;;;;;;5018464;28;20070;-79
2023/10/02 15:20:55;;;;;;;10.68;4.38;;;;;;;;;;5015342;28;20045;-77
2023/10/02 15:23:22;;;;;;;13.50;4.63;;;;;;;;;;5012385;28;20372;-79
2023/10/02 15:25:50;;;;;;;13.35;5.00;;;;;;;;;;5033766;28;20052;-79
2023/10/02 15:28:19;;;;;;;11.57;4.32;;;;;;;;;;5013500;28;20041;-80
2023/10/02 15:30:46;;;;;;;14.50;4.90;;;;;;;;;;5011025;28;20038;-81
2023/10/02 15:33:12;;;;;;;14.20;4.95;;;;;;;;;;5032463;28;20066;-79
2023/10/02 15:35:39;;;;;;;13.48;4.95;;;;;;;;;;5029055;28;20052;-79
2023/10/02 15:38:06;;;;;;;15.23;5.22;;;;;;;;;;5027012;28;20045;-79
2023/10/02 15:40:36;;;;;;;12.20;4.82;;;;;;;;;;5027087;28;20050;-78
2023/10/02 15:43:03;;;;;;;10.93;4.53;;;;;;;;;;5025961;28;20065;-78
2023/10/02 15:45:31;;;;;;;11.07;4.60;;;;;;;;;;5032853;28;20053;-78
2023/10/02 15:47:58;;;;;;;14.95;5.68;;;;;;;;;;5025280;28;20072;-79
2023/10/02 15:50:26;;;;;;;13.38;5.00;;;;;;;;;;5041363;28;20060;-78
2023/10/02 15:52:54;;;;;;;12.15;4.72;;;;;;;;;;5048396;28;20642;-78